Time;durP1;ratioP1;P1;durP2;ratioP2;P2;SDS_P1;SDS_P2;PMS_P1;PMS_P2;Temp;Humidity;BMP_temperature;BMP_pressure;BME280_temperature;BME280_humidity;BME280_pressure;Samples;Min_cycle;Max_cycle;Signal;HPM_P1;HPM_P2
2022/05/19 00:02:20;;;;;;;;;10.00;9.75;;;;;25.55;46.61;100935.19;5028694;28;45525;-48
2022/05/19 00:04:45;;;;;;;;;12.25;11.50;;;;;25.57;46.66;100943.94;5030097;28;45436;-48
2022/05/19 00:07:11;;;;;;;;;17.25;13.50;;;;;25.55;46.95;100935.19;5030127;28;45527;-46
2022/05/19 00:09:37;;;;;;;;;13.75;13.50;;;;;25.56;46.80;100946.75;5021102;28;45454;-46
2022/05/19 00:12:09;;;;;;;;;14.50;11.00;;;;;25.57;46.97;100949.28;5037068;28;58897;-48
2022/05/19 00:14:35;;;;;;;;;11.50;9.75;;;;;25.57;46.60;100943.09;5036014;28;45384;-49
2022/05/19 00:17:00;;;;;;;;;11.00;9.25;;;;;25.57;47.06;100960.00;5020264;28;45494;-49
2022/05/19 00:19:26;;;;;;;;;13.00;11.50;;;;;25.57;46.93;100951.97;5020342;28;45321;-47
2022/05/19 00:21:52;;;;;;;;;7.00;5.50;;;;;25.58;46.92;100947.44;5020761;28;56462;-51
2022/05/19 00:24:17;;;;;;;;;11.75;8.75;;;;;25.58;46.81;100940.25;5029505;28;45228;-51
2022/05/19 00:26:43;;;;;;;;;9.50;8.00;;;;;25.58;46.85;100931.38;5031924;28;50543;-49
2022/05/19 00:29:09;;;;;;;;;14.50;11.75;;;;;25.58;46.82;100926.00;5023043;28;45575;-49
2022/05/19 00:31:35;;;;;;;;;12.00;10.50;;;;;25.59;46.92;100925.03;5026749;28;45340;-50
2022/05/19 00:34:01;;;;;;;;;12.50;9.00;;;;;25.57;46.91;100925.16;5025558;28;45728;-50
2022/05/19 00:36:27;;;;;;;;;10.50;8.00;;;;;25.55;47.10;100921.78;5030199;28;45442;-52
2022/05/19 00:38:53;;;;;;;;;9.25;7.25;;;;;25.49;47.51;100916.09;5022661;28;47273;-49
2022/05/19 00:41:18;;;;;;;;;10.00;10.00;;;;;25.46;47.72;100908.31;5027033;28;46299;-49
2022/05/19 00:43:56;;;;;;;;;10.00;8.25;;;;;25.41;47.67;100906.06;5052787;28;65788;-50
2022/05/19 00:46:26;;;;;;;;;13.25;12.00;;;;;25.38;48.25;100898.28;5026644;28;45339;-52
2022/05/19 00:48:54;;;;;;;;;13.00;11.50;;;;;25.34;48.17;100900.38;5029919;28;45377;-49
2022/05/19 00:51:25;;;;;;;;;10.50;10.25;;;;;25.29;47.91;100894.56;5029455;28;47068;-50
2022/05/19 00:53:54;;;;;;;;;11.50;9.25;;;;;25.30;48.15;100890.06;5039307;28;45738;-50
2022/05/19 00:56:41;;;;;;;;;12.00;10.50;;;;;25.28;47.99;100881.31;5036773;28;45355;-50
2022/05/19 00:59:09;;;;;;;;;14.50;9.50;;;;;25.27;48.27;100884.97;5027622;28;46612;-49
2022/05/19 01:01:38;;;;;;;;;13.00;9.25;;;;;25.24;48.51;100880.69;5042078;28;46570;-49
2022/05/19 01:04:27;;;;;;;;;11.25;10.50;;;;;25.23;48.41;100881.66;5032547;28;45713;-51
2022/05/19 01:06:56;;;;;;;;;12.00;12.00;;;;;25.22;48.17;100868.44;5052943;28;45458;-49
2022/05/19 01:09:22;;;;;;;;;12.00;11.00;;;;;25.17;48.56;100863.47;5027855;28;45488;-51
2022/05/19 01:11:52;;;;;;;;;11.50;10.25;;;;;25.17;48.47;100871.50;5031382;28;66139;-48
2022/05/19 01:14:17;;;;;;;;;14.25;12.00;;;;;25.14;49.13;100866.41;5038296;28;45356;-47
2022/05/19 01:16:43;;;;;;;;;10.00;9.50;;;;;25.11;49.04;100864.00;5028271;28;45179;-50
2022/05/19 01:19:23;;;;;;;;;11.75;11.25;;;;;25.05;49.04;100856.50;5028049;28;45417;-48
2022/05/19 01:21:50;;;;;;;;;11.25;11.25;;;;;25.02;49.79;100868.34;5030769;28;45419;-49
2022/05/19 01:24:22;;;;;;;;;14.50;9.75;;;;;24.96;49.86;100860.81;5034021;28;45854;-51
2022/05/19 01:26:50;;;;;;;;;11.00;10.50;;;;;24.91;50.77;100863.88;5036365;28;46101;-50
2022/05/19 01:29:17;;;;;;;;;12.00;12.00;;;;;24.86;50.12;100859.91;5037464;28;45525;-49
2022/05/19 01:31:52;;;;;;;;;11.00;11.00;;;;;24.85;49.92;100863.56;5021055;28;46079;-49
2022/05/19 01:34:21;;;;;;;;;10.75;10.00;;;;;24.86;49.83;100859.91;5034013;28;45235;-51
2022/05/19 01:36:46;;;;;;;;;14.00;11.00;;;;;24.87;49.89;100856.25;5035554;28;45319;-52
2022/05/19 01:39:18;;;;;;;;;12.00;11.00;;;;;24.86;49.99;100862.56;5031626;28;45352;-49
2022/05/19 01:41:53;;;;;;;;;13.00;11.75;;;;;24.85;49.93;100861.72;5035015;28;45288;-50
2022/05/19 01:44:37;;;;;;;;;12.00;9.25;;;;;24.87;50.00;100858.94;5038212;28;45744;-49
2022/05/19 01:47:23;;;;;;;;;10.50;10.25;;;;;24.87;49.74;100865.13;5022336;28;45428;-49
2022/05/19 01:49:54;;;;;;;;;12.25;10.00;;;;;24.84;50.02;100857.34;5026284;28;45392;-49
2022/05/19 01:52:31;;;;;;;;;11.25;11.25;;;;;24.88;50.10;100857.94;5028960;28;45470;-50
2022/05/19 01:55:09;;;;;;;;;11.00;9.00;;;;;24.87;50.00;100862.44;5026228;28;45553;-48
2022/05/19 01:57:48;;;;;;;;;11.00;10.25;;;;;24.87;50.13;100859.78;5044259;28;46299;-50
2022/05/19 02:00:18;;;;;;;;;11.25;10.25;;;;;24.86;50.14;100855.41;5030852;28;45318;-51
2022/05/19 02:03:08;;;;;;;;;12.75;11.50;;;;;24.85;50.36;100858.22;5029550;28;45486;-49
2022/05/19 02:05:39;;;;;;;;;15.50;12.50;;;;;24.83;50.62;100851.16;5029676;28;45876;-48
2022/05/19 02:08:08;;;;;;;;;14.50;11.00;;;;;24.80;50.50;100856.75;5026929;28;45257;-52
2022/05/19 02:10:37;;;;;;;;;13.75;13.75;;;;;24.77;50.79;100859.72;5032135;28;45593;-52
2022/05/19 02:13:04;;;;;;;;;10.50;10.25;;;;;24.77;50.66;100856.16;5035847;28;45414;-48
2022/05/19 02:15:34;;;;;;;;;10.50;10.25;;;;;24.76;50.65;100858.00;5028482;28;45596;-50
2022/05/19 02:18:00;;;;;;;;;11.50;9.25;;;;;24.76;50.80;100862.53;5036988;28;45505;-49
2022/05/19 02:20:27;;;;;;;;;15.25;10.25;;;;;24.74;50.85;100862.66;5029764;28;46757;-51
2022/05/19 02:22:53;;;;;;;;;13.50;10.00;;;;;24.74;50.45;100862.66;5028198;28;46044;-51
2022/05/19 02:25:23;;;;;;;;;14.00;11.75;;;;;24.73;50.76;100858.25;5027788;28;45339;-51
2022/05/19 02:27:56;;;;;;;;;16.00;10.75;;;;;24.71;50.97;100854.88;5024689;28;45640;-51
2022/05/19 02:30:27;;;;;;;;;17.00;13.00;;;;;24.66;51.38;100857.09;5027196;28;45466;-51
2022/05/19 02:32:52;;;;;;;;;14.25;12.75;;;;;24.67;50.94;100860.63;5026896;28;45498;-48
2022/05/19 02:35:18;;;;;;;;;14.00;12.25;;;;;24.65;51.22;100860.75;5023703;28;45279;-48
2022/05/19 02:37:43;;;;;;;;;11.50;10.25;;;;;24.64;51.03;100856.38;5023924;28;45233;-52
2022/05/19 02:40:11;;;;;;;;;15.50;12.25;;;;;24.68;51.23;100862.31;5031123;28;45527;-50
2022/05/19 02:42:37;;;;;;;;;11.75;11.75;;;;;24.68;51.16;100859.63;5025463;28;45255;-49
2022/05/19 02:45:03;;;;;;;;;12.50;12.50;;;;;24.67;51.12;100860.63;5035743;28;45847;-49
2022/05/19 02:47:28;;;;;;;;;13.75;11.75;;;;;24.66;50.98;100853.56;5026437;28;45372;-48
2022/05/19 02:49:54;;;;;;;;;13.50;11.75;;;;;24.66;51.57;100865.13;5021533;28;67424;-50
2022/05/19 02:52:19;;;;;;;;;13.25;11.00;;;;;24.63;51.45;100858.22;5025657;28;65369;-50
2022/05/19 02:54:44;;;;;;;;;14.00;11.50;;;;;24.63;51.48;100866.25;5027478;28;45254;-50
2022/05/19 02:57:10;;;;;;;;;16.00;12.00;;;;;24.62;51.79;100866.38;5036914;28;63583;-49
2022/05/19 02:59:35;;;;;;;;;13.00;13.00;;;;;24.61;51.39;100868.19;5021594;28;45441;-50
2022/05/19 03:02:00;;;;;;;;;16.00;13.75;;;;;24.60;51.73;100869.16;5030209;28;68954;-49
2022/05/19 03:04:26;;;;;;;;;12.75;10.50;;;;;24.58;51.46;100867.59;5033085;28;45419;-49
2022/05/19 03:06:52;;;;;;;;;12.25;11.00;;;;;24.55;51.75;100863.34;5034328;28;45952;-49
2022/05/19 03:09:17;;;;;;;;;11.00;10.75;;;;;24.55;51.74;100865.19;5025432;28;45514;-50
2022/05/19 03:11:43;;;;;;;;;9.75;8.50;;;;;24.52;52.06;100868.91;5034628;28;47186;-51
2022/05/19 03:14:08;;;;;;;;;14.25;12.50;;;;;24.52;52.06;100866.25;5033114;28;66235;-49
2022/05/19 03:16:33;;;;;;;;;11.00;11.00;;;;;24.52;51.97;100866.25;5031697;28;45479;-49
2022/05/19 03:18:59;;;;;;;;;12.75;9.75;;;;;24.51;52.16;100869.91;5035522;28;45581;-49
2022/05/19 03:21:24;;;;;;;;;13.50;12.75;;;;;24.50;52.00;100862.84;5022218;28;66801;-50
2022/05/19 03:23:50;;;;;;;;;12.00;11.75;;;;;24.50;51.87;100865.53;5032997;28;45421;-49
2022/05/19 03:26:15;;;;;;;;;14.50;11.75;;;;;24.49;52.00;100860.31;5029419;28;45455;-49
2022/05/19 03:28:40;;;;;;;;;13.75;12.25;;;;;24.48;51.93;100864.81;5027885;28;65398;-52
2022/05/19 03:31:08;;;;;;;;;13.50;11.00;;;;;24.47;51.93;100857.78;5030905;28;64919;-51
2022/05/19 03:33:33;;;;;;;;;14.25;11.00;;;;;24.48;52.16;100863.97;5024152;28;45534;-48
2022/05/19 03:36:00;;;;;;;;;12.00;11.75;;;;;24.46;52.03;100866.78;5031624;28;64257;-49
2022/05/19 03:38:26;;;;;;;;;12.25;12.25;;;;;24.43;52.22;100856.31;5021984;28;45217;-51
2022/05/19 03:40:52;;;;;;;;;14.00;14.00;;;;;24.41;52.58;100859.13;5033013;28;45643;-52
2022/05/19 03:43:17;;;;;;;;;15.25;13.75;;;;;24.39;52.29;100858.41;5028045;28;64539;-49
2022/05/19 03:45:43;;;;;;;;;19.75;15.00;;;;;24.40;52.05;100856.56;5036367;28;45386;-49
2022/05/19 03:48:09;;;;;;;;;17.00;12.50;;;;;24.39;52.47;100854.88;5029476;28;45283;-50
2022/05/19 03:50:35;;;;;;;;;16.00;13.25;;;;;24.37;52.17;100856.84;5037477;28;46435;-48
2022/05/19 03:53:00;;;;;;;;;14.25;11.75;;;;;24.34;52.05;100863.28;5033331;28;45429;-49
2022/05/19 03:55:25;;;;;;;;;14.50;12.25;;;;;24.32;52.59;100867.06;5030306;28;61229;-49
2022/05/19 03:57:51;;;;;;;;;12.00;11.00;;;;;24.33;52.12;100860.72;5031952;28;53862;-50
2022/05/19 04:00:18;;;;;;;;;15.00;13.00;;;;;24.33;52.40;100858.94;5036868;28;46752;-49
2022/05/19 04:02:44;;;;;;;;;16.25;13.25;;;;;24.33;52.62;100860.72;5033047;28;45574;-52
2022/05/19 04:05:10;;;;;;;;;12.75;11.00;;;;;24.31;52.41;100862.69;5026107;28;45655;-51
2022/05/19 04:07:37;;;;;;;;;14.00;12.50;;;;;24.30;52.49;100861.84;5028232;28;45558;-48
2022/05/19 04:10:03;;;;;;;;;14.25;11.50;;;;;24.28;52.78;100863.81;5033634;28;47163;-49
2022/05/19 04:12:28;;;;;;;;;13.25;10.00;;;;;24.24;52.86;100865.03;5037616;28;45288;-49
2022/05/19 04:14:53;;;;;;;;;12.00;11.00;;;;;24.23;52.85;100864.19;5033066;28;47819;-52
2022/05/19 04:17:18;;;;;;;;;12.25;11.75;;;;;24.21;52.68;100868.81;5031648;28;65074;-51
2022/05/19 04:19:44;;;;;;;;;16.00;12.25;;;;;24.20;53.35;100866.25;5027443;28;61356;-48
2022/05/19 04:22:09;;;;;;;;;12.75;12.75;;;;;24.16;52.96;100862.16;5027095;28;52237;-48
2022/05/19 04:24:35;;;;;;;;;12.00;11.75;;;;;24.16;53.60;100867.50;5033392;28;46312;-48
2022/05/19 04:27:02;;;;;;;;;16.00;12.75;;;;;24.09;52.84;100856.44;5036219;28;45553;-49
2022/05/19 04:29:27;;;;;;;;;14.00;12.00;;;;;24.15;52.87;100866.66;5030180;28;47080;-51
2022/05/19 04:31:52;;;;;;;;;9.50;9.00;;;;;24.15;53.11;100865.78;5035420;28;67669;-52
2022/05/19 04:34:18;;;;;;;;;15.25;12.50;;;;;24.15;53.19;100865.78;5035791;28;63545;-51
2022/05/19 04:36:45;;;;;;;;;12.50;10.75;;;;;24.16;52.92;100860.31;5028608;28;64609;-50
2022/05/19 04:39:10;;;;;;;;;14.50;13.25;;;;;24.17;53.07;100864.69;5025516;28;47157;-46
2022/05/19 04:41:36;;;;;;;;;15.75;12.00;;;;;24.19;53.04;100864.56;5020266;28;45478;-51
2022/05/19 04:44:02;;;;;;;;;10.75;9.25;;;;;24.18;52.74;100866.38;5024697;28;45480;-49
2022/05/19 04:46:27;;;;;;;;;11.00;10.00;;;;;24.18;53.12;100870.88;5025465;28;45453;-51
2022/05/19 04:48:53;;;;;;;;;14.75;10.50;;;;;24.16;53.09;100878.19;5023119;28;67123;-49
2022/05/19 04:51:19;;;;;;;;;12.50;11.25;;;;;24.16;52.99;100875.50;5020936;28;45481;-51
2022/05/19 04:53:44;;;;;;;;;13.00;10.25;;;;;24.18;53.08;100879.75;5024378;28;45602;-49
2022/05/19 04:56:09;;;;;;;;;11.75;11.00;;;;;24.19;53.01;100894.00;5028604;28;67157;-48
2022/05/19 04:58:35;;;;;;;;;14.00;11.75;;;;;24.18;53.05;100900.31;5027177;28;66876;-52
2022/05/19 05:01:00;;;;;;;;;16.00;13.50;;;;;24.21;52.96;100908.91;5031914;28;52907;-50
2022/05/19 05:03:27;;;;;;;;;14.75;14.00;;;;;24.22;52.96;100920.47;5025285;28;56824;-50
2022/05/19 05:05:53;;;;;;;;;14.25;13.25;;;;;24.22;53.10;100920.47;5024738;28;45231;-50
2022/05/19 05:08:18;;;;;;;;;13.50;10.75;;;;;24.23;52.78;100931.03;5021793;28;46236;-52
2022/05/19 05:10:43;;;;;;;;;16.25;12.75;;;;;24.24;52.96;100929.19;5026341;28;45399;-49
2022/05/19 05:13:13;;;;;;;;;13.75;11.50;;;;;24.22;52.76;100924.00;5030630;28;45511;-51
2022/05/19 05:15:40;;;;;;;;;14.50;12.75;;;;;24.23;52.63;100928.38;5028426;28;45328;-51
2022/05/19 05:18:06;;;;;;;;;11.75;10.00;;;;;24.25;52.64;100923.72;5027986;28;45209;-50
2022/05/19 05:20:31;;;;;;;;;13.50;13.00;;;;;24.26;52.86;100922.78;5027909;28;45926;-48
2022/05/19 05:22:57;;;;;;;;;14.50;10.50;;;;;24.27;52.80;100953.03;5032731;28;45388;-49
2022/05/19 05:25:22;;;;;;;;;12.50;12.00;;;;;24.28;52.76;100968.13;5033040;28;66082;-49
2022/05/19 05:27:48;;;;;;;;;14.25;12.75;;;;;24.30;52.67;100989.41;5032200;28;46018;-49
2022/05/19 05:30:13;;;;;;;;;13.75;12.00;;;;;24.30;52.60;100960.81;5031228;28;66946;-52
2022/05/19 05:32:39;;;;;;;;;16.00;14.25;;;;;24.34;52.65;100953.38;5030211;28;45280;-51
2022/05/19 05:35:06;;;;;;;;;15.50;12.25;;;;;24.33;52.60;100971.28;5030749;28;45614;-50
2022/05/19 05:37:32;;;;;;;;;11.75;10.25;;;;;24.32;52.66;100988.28;5022129;28;47095;-49
2022/05/19 05:39:57;;;;;;;;;13.75;12.75;;;;;24.32;52.48;100982.09;5023006;28;63562;-49
2022/05/19 05:42:22;;;;;;;;;12.25;10.25;;;;;24.30;52.73;100976.03;5037968;28;60702;-50
2022/05/19 05:44:48;;;;;;;;;12.50;12.50;;;;;24.33;52.71;100981.09;5023540;28;66714;-49
2022/05/19 05:47:14;;;;;;;;;12.50;10.50;;;;;24.33;52.48;100970.41;5029906;28;45332;-51
2022/05/19 05:49:39;;;;;;;;;14.25;11.75;;;;;24.31;52.75;100967.88;5029785;28;60253;-52
2022/05/19 05:52:05;;;;;;;;;10.50;9.75;;;;;24.35;52.57;100973.81;5030251;28;45455;-50
2022/05/19 05:54:30;;;;;;;;;13.25;10.25;;;;;24.38;52.31;100971.75;5038975;28;45469;-51
2022/05/19 05:56:56;;;;;;;;;13.50;12.50;;;;;24.41;52.50;100974.16;5031981;28;64170;-49
2022/05/19 05:59:21;;;;;;;;;12.25;12.00;;;;;24.45;52.46;100964.03;5023475;28;45273;-49
2022/05/19 06:01:47;;;;;;;;;11.75;10.00;;;;;24.48;52.61;100962.97;5026655;28;45407;-48
2022/05/19 06:04:13;;;;;;;;;15.50;13.75;;;;;24.52;52.28;100970.59;5027003;28;45462;-52
2022/05/19 06:06:38;;;;;;;;;13.50;10.75;;;;;24.44;52.49;100957.00;5035805;28;47140;-52
2022/05/19 06:09:03;;;;;;;;;13.75;12.25;;;;;24.56;52.54;100958.72;5028729;28;66368;-50
2022/05/19 06:11:29;;;;;;;;;16.50;16.50;;;;;24.58;52.07;100954.06;5029801;28;54311;-49
2022/05/19 06:13:54;;;;;;;;;19.75;12.75;;;;;24.64;51.78;100956.22;5020931;28;61464;-50
2022/05/19 06:16:20;;;;;;;;;12.25;10.50;;;;;24.66;51.92;100956.09;5028006;28;63691;-52
2022/05/19 06:18:45;;;;;;;;;10.00;10.00;;;;;24.66;51.66;100961.47;5033530;28;45421;-51
2022/05/19 06:21:10;;;;;;;;;13.75;10.75;;;;;24.68;51.92;100969.38;5025624;28;45397;-51
2022/05/19 06:23:36;;;;;;;;;14.00;12.00;;;;;24.69;52.17;100971.91;5033713;28;67863;-50
2022/05/19 06:26:02;;;;;;;;;12.00;11.50;;;;;24.63;51.84;100951.88;5038345;28;46228;-51
2022/05/19 06:28:27;;;;;;;;;14.25;12.25;;;;;24.74;51.51;100975.06;5040130;28;45750;-48
2022/05/19 06:30:53;;;;;;;;;12.75;11.50;;;;;24.77;51.76;100977.50;5027387;28;50328;-50
2022/05/19 06:33:20;;;;;;;;;13.00;12.75;;;;;24.78;51.58;100973.81;5026640;28;45461;-49
2022/05/19 06:35:46;;;;;;;;;12.50;11.00;;;;;24.80;51.46;100969.19;5038185;28;45639;-49
2022/05/19 06:38:11;;;;;;;;;12.75;12.00;;;;;24.82;51.56;100967.25;5028796;28;45735;-51
2022/05/19 06:40:36;;;;;;;;;14.00;12.00;;;;;24.87;51.48;100968.69;5036023;28;45545;-48
2022/05/19 06:43:10;;;;;;;;;12.00;11.25;;;;;24.85;51.57;100968.81;5026892;28;45462;-51
2022/05/19 06:45:36;;;;;;;;;13.25;9.00;;;;;24.87;51.46;100971.38;5040674;28;46284;-48
2022/05/19 06:48:01;;;;;;;;;11.50;11.00;;;;;24.89;51.42;100972.91;5037946;28;45222;-50
2022/05/19 06:50:27;;;;;;;;;14.25;11.50;;;;;24.92;51.34;100974.50;5039817;28;45324;-50
2022/05/19 06:53:02;;;;;;;;;12.50;11.25;;;;;24.95;51.59;100979.63;5036538;28;60310;-51
2022/05/19 06:55:28;;;;;;;;;12.00;11.25;;;;;24.98;51.55;100979.34;5035406;28;45389;-50
2022/05/19 06:57:54;;;;;;;;;12.75;12.25;;;;;25.00;51.37;100986.28;5030246;28;45745;-51
2022/05/19 07:00:21;;;;;;;;;18.50;12.50;;;;;25.04;51.35;100983.31;5023430;28;45358;-52
2022/05/19 07:02:49;;;;;;;;;13.50;11.25;;;;;25.10;51.45;100983.66;5031421;28;45475;-50
2022/05/19 07:05:17;;;;;;;;;12.25;11.75;;;;;25.15;51.07;100988.63;5028437;28;46168;-51
2022/05/19 07:07:46;;;;;;;;;14.50;13.25;;;;;25.18;50.99;100991.06;5028816;28;45677;-51
2022/05/19 07:10:14;;;;;;;;;11.50;11.25;;;;;25.18;51.22;100989.22;5027948;28;45308;-49
2022/05/19 07:12:39;;;;;;;;;15.00;11.25;;;;;25.18;50.87;100986.53;5034566;28;45298;-52
2022/05/19 07:15:05;;;;;;;;;17.00;11.50;;;;;25.22;51.02;100987.13;5031507;28;69627;-53
2022/05/19 07:17:30;;;;;;;;;14.00;13.25;;;;;25.25;51.04;100992.25;5026290;28;45466;-52
2022/05/19 07:22:39;;;;;;;;;19.50;13.75;;;;;25.32;50.86;100995.25;5032437;28;45448;-51
2022/05/19 07:25:11;;;;;;;;;13.50;12.00;;;;;25.31;51.03;100994.41;5036399;28;47176;-50
2022/05/19 07:27:37;;;;;;;;;15.00;13.75;;;;;25.31;50.94;100993.56;5027224;28;45550;-48
2022/05/19 07:30:03;;;;;;;;;16.00;13.50;;;;;25.28;50.57;100983.94;5025581;28;45312;-50
2022/05/19 07:32:28;;;;;;;;;21.75;17.00;;;;;25.31;50.78;100985.53;5026174;28;45359;-48
2022/05/19 07:34:56;;;;;;;;;17.25;15.75;;;;;25.30;50.94;100982.00;5027426;28;45341;-51
2022/05/19 07:37:22;;;;;;;;;18.25;15.50;;;;;25.31;50.70;100989.03;5034039;28;45341;-51
2022/05/19 07:39:48;;;;;;;;;18.75;17.00;;;;;25.35;50.69;100989.63;5025659;28;45408;-49
2022/05/19 07:42:13;;;;;;;;;20.75;17.00;;;;;25.38;50.87;101000.94;5022703;28;45286;-52
2022/05/19 07:44:38;;;;;;;;;20.75;16.75;;;;;25.40;50.79;101006.16;5029916;28;72251;-49
2022/05/19 07:47:04;;;;;;;;;21.25;14.50;;;;;25.44;50.34;101004.06;5029025;28;62977;-52
2022/05/19 07:49:29;;;;;;;;;21.50;19.25;;;;;25.52;50.64;101001.59;5020600;28;45384;-50
2022/05/19 07:51:55;;;;;;;;;21.50;19.25;;;;;25.60;50.42;101000.94;5025488;28;65883;-50
2022/05/19 07:54:22;;;;;;;;;22.50;17.50;;;;;25.69;50.46;101003.69;5026671;28;69490;-50
2022/05/19 07:56:48;;;;;;;;;16.75;16.00;;;;;25.75;50.43;101005.81;5037685;28;45385;-52
2022/05/19 07:59:15;;;;;;;;;17.50;17.00;;;;;25.77;50.16;100994.94;5026529;28;65278;-52
2022/05/19 08:01:41;;;;;;;;;19.25;18.75;;;;;25.90;50.10;101013.50;5038202;28;45273;-52
2022/05/19 08:04:08;;;;;;;;;18.50;13.25;;;;;25.95;49.89;101022.00;5027281;28;46262;-53
2022/05/19 08:06:33;;;;;;;;;17.75;15.25;;;;;26.04;49.94;101034.59;5029048;28;45304;-50
2022/05/19 08:08:59;;;;;;;;;19.75;14.75;;;;;26.12;49.46;101036.63;5039627;28;45234;-52
2022/05/19 08:11:28;;;;;;;;;21.50;15.50;;;;;26.18;49.53;101041.44;5033639;28;45343;-51
2022/05/19 08:16:39;;;;;;;;;19.50;16.75;;;;;26.33;49.24;101044.63;5026490;28;45401;-50
2022/05/19 08:19:05;;;;;;;;;19.25;18.25;;;;;26.42;49.40;101054.53;5033717;28;45170;-49
2022/05/19 08:21:31;;;;;;;;;19.75;17.50;;;;;26.50;49.20;101060.03;5029015;28;45459;-49
2022/05/19 08:23:57;;;;;;;;;22.75;18.75;;;;;26.49;49.15;101070.94;5033579;28;46339;-49
2022/05/19 08:26:22;;;;;;;;;19.00;16.75;;;;;26.47;48.80;101076.44;5028888;28;45440;-51
2022/05/19 08:28:48;;;;;;;;;17.50;13.75;;;;;26.48;49.17;101077.28;5026870;28;45173;-49
2022/05/19 08:31:23;;;;;;;;;17.25;15.00;;;;;26.52;49.07;101071.50;5030322;28;45583;-51
2022/05/19 08:33:51;;;;;;;;;17.25;14.75;;;;;26.58;48.58;101094.25;5032913;28;46223;-50
2022/05/19 08:36:16;;;;;;;;;16.75;12.00;;;;;26.53;48.75;101117.97;5026395;28;45687;-50
2022/05/19 08:38:42;;;;;;;;;20.50;13.75;;;;;26.46;48.62;101116.81;5022551;28;52656;-48
2022/05/19 08:41:31;;;;;;;;;11.75;10.50;;;;;26.37;48.28;101123.84;5031873;28;45212;-52
2022/05/19 08:44:11;;;;;;;;;13.00;13.00;;;;;26.23;48.32;101148.38;5031728;28;46254;-49
2022/05/19 08:46:39;;;;;;;;;16.75;13.25;;;;;26.14;48.28;101153.53;5034852;28;45456;-50
2022/05/19 08:49:10;;;;;;;;;16.75;12.00;;;;;26.08;48.25;101153.22;5041228;28;45339;-49
2022/05/19 08:52:00;;;;;;;;;14.00;12.50;;;;;26.01;48.40;101150.22;5036894;28;45498;-52
2022/05/19 08:54:25;;;;;;;;;10.25;10.25;;;;;26.00;48.24;101148.50;5034071;28;45431;-50
2022/05/19 08:56:55;;;;;;;;;12.25;11.50;;;;;26.01;48.11;101146.66;5037219;28;45221;-51
2022/05/19 08:59:32;;;;;;;;;10.00;9.25;;;;;26.04;48.09;101141.88;5030706;28;45417;-49
2022/05/19 09:02:17;;;;;;;;;11.75;9.50;;;;;26.08;47.93;101143.34;5031048;28;45374;-49
2022/05/19 09:05:07;;;;;;;;;13.50;8.50;;;;;26.12;47.71;101134.03;5034431;28;46401;-50
2022/05/19 09:10:26;;;;;;;;;12.75;11.00;;;;;26.29;47.22;101161.22;5033738;28;45249;-50
2022/05/19 09:13:00;;;;;;;;;8.00;7.25;;;;;26.31;46.90;101175.34;5034700;28;45385;-48
2022/05/19 09:15:26;;;;;;;;;9.75;7.50;;;;;26.33;46.66;101176.09;5029782;28;45502;-50
2022/05/19 09:17:52;;;;;;;;;12.25;7.75;;;;;26.36;46.36;101185.72;5022739;28;67356;-49
2022/05/19 09:20:20;;;;;;;;;9.00;7.25;;;;;26.41;46.31;101186.16;5023634;28;61536;-50
2022/05/19 09:22:46;;;;;;;;;8.75;7.50;;;;;26.47;45.87;101210.63;5031235;28;45456;-52
2022/05/19 09:25:16;;;;;;;;;8.25;8.00;;;;;26.45;45.99;101211.75;5033491;28;45991;-48
2022/05/19 09:27:44;;;;;;;;;10.25;8.00;;;;;26.49;45.77;101205.13;5034043;28;45333;-51
2022/05/19 09:30:36;;;;;;;;;10.25;8.75;;;;;26.46;45.32;101213.44;5025469;28;45256;-51
2022/05/19 09:33:13;;;;;;;;;15.50;12.00;;;;;26.43;45.39;101219.06;5028623;28;45284;-50
2022/05/19 09:35:43;;;;;;;;;17.25;13.50;;;;;26.39;44.82;101229.22;5036029;28;46110;-52
2022/05/19 09:38:24;;;;;;;;;17.25;15.25;;;;;26.40;44.41;101225.56;5029113;28;45797;-52
2022/05/19 09:40:55;;;;;;;;;19.00;15.25;;;;;26.50;44.37;101229.13;5022141;28;45323;-52
2022/05/19 09:43:26;;;;;;;;;20.75;18.25;;;;;26.75;44.39;101248.50;5035120;28;45406;-50
2022/05/19 09:46:00;;;;;;;;;12.75;12.00;;;;;27.50;43.48;101250.88;5038962;28;46242;-48
2022/05/19 09:48:27;;;;;;;;;16.50;13.75;;;;;28.71;42.43;101250.38;5034808;28;45270;-51
2022/05/19 09:51:00;;;;;;;;;11.00;10.25;;;;;29.89;40.20;101251.44;5021775;28;45290;-50
2022/05/19 09:53:28;;;;;;;;;9.75;8.50;;;;;31.14;38.39;101268.28;5033586;28;45348;-49
2022/05/19 09:55:56;;;;;;;;;13.75;10.00;;;;;32.29;36.51;101273.88;5036694;28;46222;-52
2022/05/19 09:58:25;;;;;;;;;11.50;8.00;;;;;33.26;35.04;101272.97;5030965;28;45700;-50
2022/05/19 10:00:58;;;;;;;;;9.25;8.00;;;;;34.04;34.51;101277.38;5035065;28;45408;-52
2022/05/19 10:03:33;;;;;;;;;6.50;6.50;;;;;34.34;33.35;101282.06;5027611;28;45347;-49
2022/05/19 10:06:05;;;;;;;;;10.75;7.75;;;;;34.52;33.03;101279.81;5037428;28;45403;-49
2022/05/19 10:08:39;;;;;;;;;10.25;8.00;;;;;35.13;32.56;101279.66;5041415;28;45788;-49
2022/05/19 10:11:13;;;;;;;;;6.75;5.25;;;;;35.58;30.42;101276.84;5036586;28;45468;-51
2022/05/19 10:13:46;;;;;;;;;4.25;4.25;;;;;35.08;30.78;101264.91;5034451;28;45306;-50
2022/05/19 10:16:19;;;;;;;;;9.00;6.00;;;;;34.63;31.50;101273.06;5022734;28;46420;-51
2022/05/19 10:19:13;;;;;;;;;8.00;4.75;;;;;34.03;31.31;101262.13;5033751;28;45468;-49
2022/05/19 10:22:19;;;;;;;;;6.25;6.25;;;;;33.44;31.68;101273.53;5020365;28;45387;-50
2022/05/19 10:24:44;;;;;;;;;16.75;11.50;;;;;33.53;31.53;101303.34;5034725;28;45343;-52
2022/05/19 10:33:41;;;;;;;;;4.25;4.00;;;;;35.47;29.69;101316.28;5030305;28;45517;-50
2022/05/19 10:36:21;;;;;;;;;6.75;4.75;;;;;36.02;28.53;101307.66;5030841;28;45779;-50
2022/05/19 10:39:08;;;;;;;;;5.25;4.00;;;;;36.14;27.18;101297.06;5034578;28;47069;-50
2022/05/19 10:41:45;;;;;;;;;3.75;3.75;;;;;35.62;28.46;101291.72;5033033;28;45360;-51
2022/05/19 10:44:25;;;;;;;;;7.00;5.25;;;;;35.56;29.15;101289.78;5028380;28;45465;-49
2022/05/19 10:46:57;;;;;;;;;3.75;3.00;;;;;35.42;28.55;101285.25;5027425;28;45432;-52
2022/05/19 10:49:37;;;;;;;;;2.00;2.00;;;;;35.37;29.23;101280.38;5026047;28;46365;-51
2022/05/19 10:52:17;;;;;;;;;4.25;2.75;;;;;35.18;28.51;101287.22;5025709;28;45301;-50
2022/05/19 10:54:57;;;;;;;;;1.75;0.25;;;;;35.22;28.72;101294.03;5028416;28;45362;-52
2022/05/19 10:57:36;;;;;;;;;2.00;2.00;;;;;35.39;27.68;101297.34;5026102;28;45290;-49
2022/05/19 11:00:15;;;;;;;;;12.75;8.75;;;;;35.33;27.02;101295.41;5026139;28;45743;-50
2022/05/19 11:02:47;;;;;;;;;5.25;4.50;;;;;34.90;27.95;101295.22;5026007;28;45304;-52
2022/05/19 11:05:43;;;;;;;;;2.75;2.75;;;;;34.30;28.09;101286.16;5028753;28;45345;-49
2022/05/19 11:08:33;;;;;;;;;5.25;3.50;;;;;33.59;27.88;101289.91;5036362;28;45241;-52
2022/05/19 11:11:01;;;;;;;;;4.00;3.25;;;;;32.98;28.92;101294.25;5027070;28;46289;-50
2022/05/19 11:13:51;;;;;;;;;8.75;7.75;;;;;32.54;29.17;101288.22;5024049;28;45466;-52
2022/05/19 11:16:37;;;;;;;;;8.50;3.75;;;;;32.24;30.26;101281.69;5028330;28;45447;-50
2022/05/19 11:19:14;;;;;;;;;6.75;4.00;;;;;32.00;30.17;101287.94;5028095;28;45167;-50
2022/05/19 11:21:44;;;;;;;;;0.00;0.00;;;;;32.32;29.70;101294.38;5029301;28;46108;-49
2022/05/19 11:24:21;;;;;;;;;3.00;1.00;;;;;32.45;30.03;101294.69;5033682;28;45210;-49
2022/05/19 11:26:49;;;;;;;;;3.00;1.25;;;;;32.56;29.33;101293.47;5032764;28;45415;-52
2022/05/19 11:29:17;;;;;;;;;2.00;2.00;;;;;32.58;29.27;101287.91;5021752;28;45305;-52
2022/05/19 11:32:20;;;;;;;;;3.25;2.50;;;;;32.77;30.18;101281.28;5029325;28;46351;-51
2022/05/19 11:35:27;;;;;;;;;2.75;2.75;;;;;34.01;28.63;101272.28;5031145;28;45456;-53
2022/05/19 11:38:03;;;;;;;;;5.00;3.25;;;;;35.45;27.88;101269.38;5022758;28;45549;-51